USCM 200900Z 02007MPS 9999 NSC 15/M08 Q1015 R36/090060 TEMPO 36013MPS RMK QFE723
QNH:(hPa/inHg/mmHg)1015 / 29.97 / 761
QFE:(hPa/inHg/mmHg)999 / 29.50 / 749
Temperature15
Dew Point-8
Visibility> 10000
Weather
Cloud Cover
Transition Altitude7000 ft.
Transition LevelFL80
SQUAWK